Time;durP1;ratioP1;P1;durP2;ratioP2;P2;SDS_P1;SDS_P2;PMS_P1;PMS_P2;Temp;Humidity;BMP_temperature;BMP_pressure;BME280_temperature;BME280_humidity;BME280_pressure;Samples;Min_cycle;Max_cycle;Signal;HPM_P1;HPM_P2
2021/08/23 00:02:23;;;;;;;0.40;0.20;;;15.90;99.90;;;;;;5026591;28;20181;-64
2021/08/23 00:04:49;;;;;;;0.40;0.20;;;15.90;99.90;;;;;;5033348;28;20220;-64
2021/08/23 00:07:14;;;;;;;0.40;0.10;;;16.00;99.90;;;;;;5033339;28;20292;-64
2021/08/23 00:09:40;;;;;;;0.40;0.20;;;15.90;99.90;;;;;;5033026;28;20650;-64
2021/08/23 00:12:06;;;;;;;1.77;1.67;;;15.90;99.90;;;;;;5033421;28;20635;-64
2021/08/23 00:14:31;;;;;;;0.40;0.30;;;15.80;99.90;;;;;;5033393;28;20177;-64
2021/08/23 00:16:57;;;;;;;2.83;0.63;;;15.80;99.90;;;;;;5034066;28;20887;-64
2021/08/23 00:19:23;;;;;;;0.70;0.50;;;15.80;99.90;;;;;;5036650;28;20173;-64
2021/08/23 00:22:00;;;;;;;0.40;0.20;;;15.80;99.90;;;;;;5036852;28;20268;-64
2021/08/23 00:24:26;;;;;;;0.40;0.20;;;15.90;99.90;;;;;;5037147;28;20188;-64
2021/08/23 00:26:56;;;;;;;0.87;0.77;;;16.00;99.90;;;;;;5037184;28;20868;-64
2021/08/23 00:29:23;;;;;;;0.40;0.20;;;16.00;99.90;;;;;;5036638;28;20555;-64
2021/08/23 00:31:49;;;;;;;0.40;0.40;;;15.90;99.90;;;;;;5035707;28;20424;-64
2021/08/23 00:34:15;;;;;;;0.40;0.20;;;16.00;99.90;;;;;;5037039;28;20530;-64
2021/08/23 00:36:41;;;;;;;1.57;1.47;;;15.90;99.90;;;;;;5036855;28;20443;-64
2021/08/23 00:39:08;;;;;;;0.40;0.20;;;15.90;99.90;;;;;;5036902;28;20247;-64
2021/08/23 00:41:38;;;;;;;1.23;0.63;;;16.00;99.90;;;;;;5036941;28;20483;-64
2021/08/23 00:44:05;;;;;;;0.40;0.20;;;16.00;99.90;;;;;;5036763;28;20803;-64
2021/08/23 00:46:32;;;;;;;4.30;1.13;;;16.00;99.90;;;;;;5036706;28;20467;-64
2021/08/23 00:48:58;;;;;;;0.60;0.30;;;16.00;99.90;;;;;;5036533;28;20478;-64
2021/08/23 00:51:23;;;;;;;0.80;0.63;;;16.10;99.90;;;;;;5036719;28;20515;-64
2021/08/23 00:53:50;;;;;;;0.40;0.20;;;16.10;99.90;;;;;;5036710;28;20511;-64
2021/08/23 00:56:17;;;;;;;0.50;0.47;;;16.00;99.90;;;;;;5036582;28;20181;-64
2021/08/23 00:58:42;;;;;;;2.10;2.00;;;15.90;99.90;;;;;;5027032;28;20729;-64
2021/08/23 01:01:15;;;;;;;0.60;0.47;;;15.90;99.90;;;;;;5016865;28;20421;-64
2021/08/23 01:03:57;;;;;;;0.33;0.10;;;15.90;99.90;;;;;;5016780;28;20498;-64
2021/08/23 01:06:24;;;;;;;0.33;0.20;;;16.10;99.90;;;;;;5016621;28;20449;-64
2021/08/23 01:08:52;;;;;;;0.30;0.20;;;16.00;99.90;;;;;;5016263;28;20887;-64
2021/08/23 01:11:19;;;;;;;0.67;0.40;;;15.90;99.90;;;;;;5016574;28;20166;-64
2021/08/23 01:13:50;;;;;;;1.55;1.08;;;16.00;99.90;;;;;;5016374;28;20417;-64
2021/08/23 01:16:16;;;;;;;0.37;0.30;;;15.90;99.90;;;;;;5016441;28;20635;-64
2021/08/23 01:18:42;;;;;;;0.40;0.20;;;15.80;99.90;;;;;;5016011;28;20437;-64
2021/08/23 01:21:21;;;;;;;0.40;0.23;;;15.90;99.90;;;;;;5016400;28;20425;-64
2021/08/23 01:23:48;;;;;;;0.50;0.40;;;15.90;99.90;;;;;;5016325;28;20768;-64
2021/08/23 01:26:18;;;;;;;0.35;0.20;;;15.90;99.90;;;;;;5016177;28;20429;-64
2021/08/23 01:29:03;;;;;;;0.40;0.30;;;16.00;99.90;;;;;;5015406;28;20591;-64
2021/08/23 01:31:34;;;;;;;0.32;0.17;;;15.90;99.90;;;;;;5016147;28;20237;-64
2021/08/23 01:34:00;;;;;;;0.50;0.40;;;15.90;99.90;;;;;;5016072;28;20174;-64
2021/08/23 01:36:27;;;;;;;0.37;0.20;;;15.90;99.90;;;;;;5015998;28;20773;-64
2021/08/23 01:38:53;;;;;;;0.50;0.47;;;15.90;99.90;;;;;;5015688;28;20433;-64
2021/08/23 01:41:19;;;;;;;0.67;0.43;;;15.90;99.90;;;;;;5031406;28;20440;-64
2021/08/23 01:43:44;;;;;;;0.87;0.87;;;15.90;99.90;;;;;;5016116;28;20206;-64
2021/08/23 01:46:10;;;;;;;0.60;0.60;;;16.00;99.90;;;;;;5015946;28;20265;-64
2021/08/23 01:48:35;;;;;;;0.33;0.20;;;16.00;99.90;;;;;;5015582;28;20206;-64
2021/08/23 01:51:01;;;;;;;0.73;0.73;;;16.00;99.90;;;;;;5015747;28;20174;-64
2021/08/23 01:53:27;;;;;;;1.03;0.93;;;16.10;99.90;;;;;;5019367;28;20182;-64
2021/08/23 01:55:52;;;;;;;0.40;0.20;;;16.00;99.90;;;;;;5020291;28;20464;-64
2021/08/23 01:58:19;;;;;;;0.40;0.30;;;16.00;99.90;;;;;;5019764;28;20553;-64
2021/08/23 02:00:48;;;;;;;1.17;0.90;;;16.00;99.90;;;;;;5020385;28;20178;-64
2021/08/23 02:03:13;;;;;;;0.37;0.23;;;16.00;99.90;;;;;;5019568;28;20180;-64
2021/08/23 02:05:39;;;;;;;1.80;1.70;;;16.10;99.90;;;;;;5020468;28;20540;-65
2021/08/23 02:08:05;;;;;;;0.97;0.57;;;16.10;99.90;;;;;;5020771;28;20229;-64
2021/08/23 02:10:31;;;;;;;0.50;0.30;;;16.00;99.90;;;;;;5020718;28;20217;-64
2021/08/23 02:12:57;;;;;;;0.67;0.40;;;16.00;99.90;;;;;;5020678;28;20532;-65
2021/08/23 02:15:22;;;;;;;0.37;0.10;;;16.00;99.90;;;;;;5020717;28;20429;-65
2021/08/23 02:17:48;;;;;;;0.60;0.50;;;16.00;99.90;;;;;;5018346;28;20204;-65
2021/08/23 02:20:13;;;;;;;0.30;0.10;;;16.00;99.90;;;;;;5014801;28;20629;-65
2021/08/23 02:22:41;;;;;;;0.40;0.20;;;16.10;99.90;;;;;;5015012;28;20508;-64
2021/08/23 02:25:08;;;;;;;0.40;0.20;;;16.00;99.90;;;;;;5014882;28;20182;-64
2021/08/23 02:27:34;;;;;;;0.40;0.20;;;16.00;99.90;;;;;;5014879;28;20425;-61
2021/08/23 02:30:00;;;;;;;0.30;0.20;;;15.90;99.90;;;;;;5014618;28;20425;-61
2021/08/23 02:32:26;;;;;;;0.57;0.53;;;15.90;99.90;;;;;;5014688;28;20432;-61
2021/08/23 02:34:51;;;;;;;0.47;0.47;;;16.00;99.90;;;;;;5014570;28;20201;-63
2021/08/23 02:37:17;;;;;;;1.07;0.97;;;15.90;99.90;;;;;;5014393;28;20182;-62
2021/08/23 02:39:43;;;;;;;0.40;0.30;;;15.90;99.90;;;;;;5013165;28;20198;-62
2021/08/23 02:42:08;;;;;;;0.40;0.40;;;15.80;99.90;;;;;;5013862;28;20175;-62
2021/08/23 02:44:34;;;;;;;0.30;0.20;;;15.80;99.90;;;;;;5014294;28;20257;-62
2021/08/23 02:47:00;;;;;;;0.60;0.60;;;15.80;99.90;;;;;;5014244;28;20237;-62
2021/08/23 02:49:26;;;;;;;0.40;0.27;;;15.80;99.90;;;;;;5013975;28;20525;-62
2021/08/23 02:51:53;;;;;;;1.38;0.63;;;15.80;99.90;;;;;;5014174;28;20174;-62
2021/08/23 02:54:19;;;;;;;0.40;0.10;;;15.70;99.90;;;;;;5014272;28;20205;-61
2021/08/23 02:56:44;;;;;;;0.33;0.20;;;15.60;99.90;;;;;;5014062;28;20461;-61
2021/08/23 02:59:10;;;;;;;0.63;0.43;;;15.60;99.90;;;;;;5013928;28;20178;-61
2021/08/23 03:01:35;;;;;;;0.40;0.20;;;15.60;99.90;;;;;;5014065;28;20178;-62
2021/08/23 03:04:01;;;;;;;1.00;0.90;;;15.50;99.90;;;;;;5014107;28;20205;-61
2021/08/23 03:06:27;;;;;;;0.40;0.20;;;15.40;99.90;;;;;;5013712;28;20193;-62
2021/08/23 03:08:52;;;;;;;0.40;0.20;;;15.40;99.90;;;;;;5013787;28;20572;-62
2021/08/23 03:11:18;;;;;;;2.33;0.50;;;15.40;99.90;;;;;;5013988;28;20567;-63
2021/08/23 03:13:44;;;;;;;0.40;0.20;;;15.40;99.90;;;;;;5029353;28;20178;-63
2021/08/23 03:16:10;;;;;;;0.60;0.40;;;15.40;99.90;;;;;;5013822;28;20174;-63
2021/08/23 03:18:36;;;;;;;1.25;0.85;;;15.40;99.90;;;;;;5013647;28;20425;-63
2021/08/23 03:21:02;;;;;;;0.70;0.60;;;15.40;99.90;;;;;;5014006;28;20491;-62
2021/08/23 03:23:29;;;;;;;0.85;0.85;;;15.50;99.90;;;;;;5013749;28;20573;-61
2021/08/23 03:25:54;;;;;;;1.05;0.90;;;15.50;99.90;;;;;;5013939;28;20531;-61
2021/08/23 03:28:21;;;;;;;0.30;0.20;;;15.40;99.90;;;;;;5013313;28;20209;-61
2021/08/23 03:30:46;;;;;;;0.30;0.20;;;15.40;99.90;;;;;;5013701;28;20695;-62
2021/08/23 03:33:12;;;;;;;0.47;0.30;;;15.40;99.90;;;;;;5013772;28;20269;-62
2021/08/23 03:35:38;;;;;;;0.50;0.50;;;15.40;99.90;;;;;;5013615;28;20198;-61
2021/08/23 03:38:04;;;;;;;0.30;0.20;;;15.30;99.90;;;;;;5013500;28;20221;-62
2021/08/23 03:40:29;;;;;;;0.40;0.30;;;15.20;99.90;;;;;;5013412;28;20214;-62
2021/08/23 03:42:55;;;;;;;0.40;0.20;;;15.20;99.90;;;;;;5013408;28;20236;-62
2021/08/23 03:45:21;;;;;;;1.17;0.60;;;15.20;99.90;;;;;;5013709;28;20216;-62
2021/08/23 03:47:46;;;;;;;0.40;0.30;;;15.10;99.90;;;;;;5013329;28;20216;-61
2021/08/23 03:50:12;;;;;;;0.50;0.40;;;15.10;99.90;;;;;;5013357;28;20178;-64
2021/08/23 03:52:38;;;;;;;0.40;0.27;;;15.10;99.90;;;;;;5015773;28;20222;-63
2021/08/23 03:55:08;;;;;;;0.30;0.20;;;15.00;99.90;;;;;;5032927;28;20922;-62
2021/08/23 03:57:35;;;;;;;0.40;0.22;;;14.90;99.90;;;;;;5017224;28;20225;-62
2021/08/23 04:00:03;;;;;;;0.50;0.50;;;14.80;99.90;;;;;;5017208;28;20178;-62
2021/08/23 04:02:29;;;;;;;0.40;0.20;;;14.80;99.90;;;;;;5017207;28;20505;-62
2021/08/23 04:04:55;;;;;;;0.40;0.20;;;14.80;99.90;;;;;;5017152;28;20174;-62
2021/08/23 04:07:20;;;;;;;1.83;1.73;;;14.70;99.90;;;;;;5017001;28;20190;-62
2021/08/23 04:09:46;;;;;;;0.40;0.27;;;14.60;99.90;;;;;;5016912;28;20244;-63
2021/08/23 04:12:12;;;;;;;1.23;0.60;;;14.70;99.90;;;;;;5016937;28;20188;-63
2021/08/23 04:14:38;;;;;;;1.92;0.35;;;14.60;99.90;;;;;;5017283;28;20182;-63
2021/08/23 04:17:04;;;;;;;0.40;0.20;;;14.60;99.90;;;;;;5016835;28;20174;-63
2021/08/23 04:19:30;;;;;;;0.40;0.30;;;14.60;99.90;;;;;;5016883;28;20186;-64
2021/08/23 04:21:57;;;;;;;0.40;0.30;;;14.50;99.90;;;;;;5016820;28;20324;-63
2021/08/23 04:24:22;;;;;;;0.40;0.20;;;14.60;99.90;;;;;;5016899;28;20368;-63
2021/08/23 04:26:48;;;;;;;2.13;1.27;;;14.60;99.90;;;;;;5015692;28;20681;-63
2021/08/23 04:29:15;;;;;;;0.30;0.20;;;14.60;99.90;;;;;;5016759;28;20241;-64
2021/08/23 04:31:41;;;;;;;0.30;0.20;;;14.60;99.90;;;;;;5016646;28;20527;-64
2021/08/23 04:34:07;;;;;;;0.30;0.20;;;14.60;99.90;;;;;;5016655;28;20189;-64
2021/08/23 04:36:33;;;;;;;0.30;0.10;;;14.60;99.90;;;;;;5015506;28;20174;-65
2021/08/23 04:38:58;;;;;;;0.50;0.50;;;14.70;99.90;;;;;;5016771;28;20197;-64
2021/08/23 04:41:24;;;;;;;12.33;0.93;;;14.60;99.90;;;;;;5016845;28;20602;-65
2021/08/23 04:43:50;;;;;;;0.30;0.20;;;14.70;99.90;;;;;;5016921;28;20436;-64
2021/08/23 04:46:17;;;;;;;0.40;0.40;;;14.70;99.90;;;;;;5016791;28;20634;-65
2021/08/23 04:48:43;;;;;;;1.38;0.38;;;14.70;99.90;;;;;;5016367;28;20244;-64
2021/08/23 04:51:09;;;;;;;0.30;0.13;;;14.80;99.90;;;;;;5016532;28;20174;-65
2021/08/23 04:53:34;;;;;;;0.40;0.30;;;15.20;99.90;;;;;;5016538;28;20174;-64
2021/08/23 04:56:00;;;;;;;0.30;0.20;;;15.40;99.90;;;;;;5016249;28;20209;-65
2021/08/23 04:58:26;;;;;;;0.40;0.27;;;15.70;99.90;;;;;;5016057;28;20210;-64
2021/08/23 05:00:51;;;;;;;43.80;3.70;;;15.80;99.90;;;;;;5016278;28;20189;-64
2021/08/23 05:03:17;;;;;;;0.40;0.20;;;15.90;99.90;;;;;;5015022;28;20182;-63
2021/08/23 05:05:42;;;;;;;1.20;0.70;;;16.00;99.90;;;;;;5015217;28;20612;-64
2021/08/23 05:08:08;;;;;;;0.50;0.40;;;16.20;99.90;;;;;;5015905;28;20256;-64
2021/08/23 05:10:34;;;;;;;0.70;0.70;;;16.40;99.90;;;;;;5015943;28;20623;-65
2021/08/23 05:12:59;;;;;;;1.50;1.40;;;16.40;99.90;;;;;;5031706;28;20242;-65
2021/08/23 05:15:25;;;;;;;0.40;0.20;;;16.30;99.90;;;;;;5016013;28;20179;-64
2021/08/23 05:17:52;;;;;;;0.40;0.30;;;16.30;99.90;;;;;;5015912;28;20263;-64
2021/08/23 05:20:19;;;;;;;0.80;0.80;;;16.40;99.90;;;;;;5015759;28;20514;-64
2021/08/23 05:22:45;;;;;;;0.50;0.30;;;16.40;99.90;;;;;;5015866;28;20510;-64
2021/08/23 05:25:11;;;;;;;0.93;0.60;;;16.30;99.90;;;;;;5015670;28;20425;-64
2021/08/23 05:27:37;;;;;;;1.70;0.40;;;16.60;99.90;;;;;;5015521;28;20178;-64
2021/08/23 05:30:04;;;;;;;1.27;0.87;;;17.00;99.90;;;;;;5015524;28;20441;-64
2021/08/23 05:32:30;;;;;;;0.40;0.20;;;16.80;99.90;;;;;;5016235;28;20272;-64
2021/08/23 05:34:56;;;;;;;0.40;0.20;;;16.90;99.90;;;;;;5015827;28;20768;-64
2021/08/23 05:37:22;;;;;;;0.40;0.20;;;16.80;99.90;;;;;;5030897;28;20188;-65
2021/08/23 05:39:51;;;;;;;0.40;0.20;;;16.90;99.90;;;;;;5015081;28;20429;-64
2021/08/23 05:42:16;;;;;;;0.67;0.67;;;17.70;99.90;;;;;;5015386;28;20241;-63
2021/08/23 05:44:42;;;;;;;0.50;0.30;;;17.30;99.90;;;;;;5014935;28;20436;-64
2021/08/23 05:47:07;;;;;;;1.47;0.43;;;17.50;99.90;;;;;;5014380;28;20185;-63
2021/08/23 05:49:33;;;;;;;2.30;0.93;;;17.30;99.90;;;;;;5014557;28;20218;-63
2021/08/23 05:52:00;;;;;;;0.60;0.57;;;17.50;99.90;;;;;;5014985;28;20174;-63
2021/08/23 05:54:27;;;;;;;1.10;0.73;;;17.50;99.90;;;;;;5014781;28;20193;-63
2021/08/23 05:56:53;;;;;;;0.90;0.90;;;17.70;99.90;;;;;;5015189;28;20421;-63
2021/08/23 05:59:19;;;;;;;0.40;0.20;;;17.90;99.90;;;;;;5015388;28;20429;-63
2021/08/23 06:01:44;;;;;;;0.50;0.30;;;18.00;98.50;;;;;;5030678;28;20433;-63
2021/08/23 06:04:10;;;;;;;0.73;0.67;;;17.90;99.90;;;;;;5013688;28;20638;-63
2021/08/23 06:06:38;;;;;;;1.13;0.67;;;18.10;99.90;;;;;;5013113;28;20224;-65
2021/08/23 06:09:03;;;;;;;0.40;0.20;;;18.90;1.00;;;;;;5014359;28;20220;-64
2021/08/23 06:11:29;;;;;;;0.40;0.20;;;18.40;36.00;;;;;;5025219;28;20967;-64
2021/08/23 06:13:55;;;;;;;1.70;1.60;;;18.40;96.10;;;;;;5034318;28;20622;-64
2021/08/23 06:16:20;;;;;;;1.03;0.50;;;18.90;1.00;;;;;;5034214;28;20268;-64
2021/08/23 06:18:46;;;;;;;0.40;0.20;;;18.80;1.00;;;;;;5027562;28;20194;-64
2021/08/23 06:21:11;;;;;;;3.33;1.37;;;18.80;1.00;;;;;;5032133;28;20292;-64
2021/08/23 06:23:37;;;;;;;1.73;1.63;;;19.30;1.00;;;;;;5033125;28;20657;-64
2021/08/23 06:26:02;;;;;;;3.90;3.60;;;19.00;1.00;;;;;;5033324;28;20182;-64
2021/08/23 06:28:28;;;;;;;0.67;0.67;;;18.70;16.30;;;;;;5032894;28;20611;-64
2021/08/23 06:30:54;;;;;;;0.50;0.37;;;18.80;1.00;;;;;;5033245;28;20178;-66
2021/08/23 06:33:19;;;;;;;0.40;0.20;;;19.00;1.00;;;;;;5033819;28;20273;-63
2021/08/23 06:35:45;;;;;;;0.80;0.60;;;18.70;80.70;;;;;;5033956;28;20256;-65
2021/08/23 06:38:11;;;;;;;2.33;1.90;;;18.90;1.00;;;;;;5032697;28;20190;-65
2021/08/23 06:40:36;;;;;;;1.67;0.53;;;19.40;1.00;;;;;;5032846;28;20506;-65
2021/08/23 06:43:03;;;;;;;0.40;0.20;;;20.00;1.00;;;;;;5034061;28;20228;-65
2021/08/23 06:45:29;;;;;;;12.63;1.60;;;20.30;99.90;;;;;;5034040;28;20185;-64
2021/08/23 06:47:54;;;;;;;0.77;0.40;;;19.70;1.00;;;;;;5033775;28;20455;-65
2021/08/23 06:50:20;;;;;;;0.50;0.20;;;19.40;1.00;;;;;;5033628;28;20622;-65
2021/08/23 06:52:45;;;;;;;0.70;0.50;;;19.10;1.00;;;;;;5033719;28;20572;-65
2021/08/23 06:55:11;;;;;;;0.40;0.20;;;18.90;1.00;;;;;;5033872;28;20511;-66
2021/08/23 06:57:37;;;;;;;0.40;0.20;;;18.60;77.80;;;;;;5033605;28;20185;-65
2021/08/23 07:00:04;;;;;;;1.47;0.77;;;18.60;88.30;;;;;;5033476;28;20181;-64
2021/08/23 07:02:29;;;;;;;0.83;0.80;;;18.70;99.90;;;;;;5033715;28;20196;-64
2021/08/23 07:04:55;;;;;;;0.50;0.50;;;19.50;1.00;;;;;;5033231;28;20412;-63
2021/08/23 07:07:21;;;;;;;0.77;0.60;;;20.00;1.00;;;;;;5032787;28;20589;-63
2021/08/23 07:09:46;;;;;;;3.03;0.30;;;19.80;1.00;;;;;;5033060;28;20225;-64
2021/08/23 07:12:12;;;;;;;4.97;0.97;;;19.30;1.00;;;;;;5033632;28;20231;-64
2021/08/23 07:14:38;;;;;;;0.60;0.47;;;19.10;1.00;;;;;;5033105;28;20177;-65
2021/08/23 07:17:04;;;;;;;0.57;0.23;;;18.70;1.00;;;;;;5034327;28;20193;-66
2021/08/23 07:19:30;;;;;;;0.40;0.20;;;18.40;99.90;;;;;;5035992;28;20207;-66
2021/08/23 07:21:55;;;;;;;0.40;0.20;;;18.40;99.90;;;;;;5036230;28;20917;-66
2021/08/23 07:24:21;;;;;;;1.13;0.63;;;18.60;99.90;;;;;;5036330;28;20203;-67
2021/08/23 07:26:46;;;;;;;0.67;0.43;;;18.90;38.40;;;;;;5038207;28;20503;-70
2021/08/23 07:29:15;;;;;;;0.40;0.23;;;18.90;38.70;;;;;;5039110;28;20213;-68
2021/08/23 07:31:42;;;;;;;0.50;0.20;;;18.60;99.90;;;;;;5041836;28;20189;-66
2021/08/23 07:34:08;;;;;;;0.40;0.20;;;19.00;13.80;;;;;;5040611;28;20424;-66
2021/08/23 07:36:33;;;;;;;0.70;0.40;;;18.70;73.30;;;;;;5040315;28;20485;-67
2021/08/23 07:38:59;;;;;;;0.50;0.20;;;18.70;80.60;;;;;;5041496;28;20438;-68
2021/08/23 07:41:25;;;;;;;29.47;1.13;;;18.90;44.00;;;;;;5039839;28;20555;-68
2021/08/23 07:43:50;;;;;;;3.37;0.27;;;18.90;1.00;;;;;;5039540;28;20189;-68
2021/08/23 07:46:16;;;;;;;0.40;0.20;;;18.90;1.00;;;;;;5039800;28;20431;-68
2021/08/23 07:48:44;;;;;;;0.40;0.20;;;18.70;33.00;;;;;;5039407;28;20199;-67
2021/08/23 07:51:10;;;;;;;1.03;0.40;;;18.90;98.10;;;;;;5040717;28;20424;-66
2021/08/23 07:53:36;;;;;;;0.40;0.20;;;19.00;1.00;;;;;;5041133;28;20860;-66
2021/08/23 07:56:02;;;;;;;0.40;0.20;;;19.20;1.00;;;;;;5041489;28;20485;-70
2021/08/23 07:58:27;;;;;;;0.40;0.20;;;19.40;1.00;;;;;;5039629;28;20898;-66
2021/08/23 08:00:53;;;;;;;2.03;0.73;;;19.40;1.00;;;;;;5039610;28;20618;-66
2021/08/23 08:03:18;;;;;;;0.40;0.20;;;19.00;1.00;;;;;;5040171;28;20319;-66
2021/08/23 08:05:44;;;;;;;0.60;0.50;;;19.50;1.00;;;;;;5039347;28;20197;-67
2021/08/23 08:08:10;;;;;;;0.50;0.20;;;19.50;1.00;;;;;;5039311;28;20219;-67
2021/08/23 08:10:36;;;;;;;0.80;0.47;;;19.40;1.00;;;;;;5038608;28;20197;-67
2021/08/23 08:13:02;;;;;;;0.40;0.20;;;19.10;1.00;;;;;;5039900;28;20260;-65
2021/08/23 08:15:28;;;;;;;0.57;0.33;;;19.20;1.00;;;;;;5040228;28;20424;-66
2021/08/23 08:17:54;;;;;;;0.40;0.20;;;19.40;99.90;;;;;;5039833;28;20511;-66
2021/08/23 08:20:19;;;;;;;1.43;0.50;;;19.50;99.90;;;;;;5039102;28;20500;-66
2021/08/23 08:22:45;;;;;;;0.50;0.40;;;19.60;99.90;;;;;;5039661;28;20595;-67
2021/08/23 08:25:11;;;;;;;0.40;0.20;;;19.40;99.90;;;;;;5039720;28;20197;-67
2021/08/23 08:27:37;;;;;;;0.40;0.20;;;19.50;99.90;;;;;;5038328;28;20521;-68
2021/08/23 08:30:08;;;;;;;1.37;0.70;;;19.50;99.90;;;;;;5038856;28;21038;-65
2021/08/23 08:32:34;;;;;;;0.40;0.20;;;19.50;85.30;;;;;;5040128;28;20419;-64
2021/08/23 08:34:59;;;;;;;0.50;0.20;;;19.70;1.00;;;;;;5039599;28;20511;-65
2021/08/23 08:37:25;;;;;;;0.40;0.20;;;19.40;1.00;;;;;;5039989;28;20182;-64
2021/08/23 08:39:51;;;;;;;0.40;0.20;;;19.70;1.00;;;;;;5035874;28;20728;-63
2021/08/23 08:42:17;;;;;;;0.40;0.20;;;20.00;99.90;;;;;;5035015;28;20236;-63
2021/08/23 08:44:44;;;;;;;0.60;0.47;;;20.10;1.00;;;;;;5036297;28;20416;-62
2021/08/23 08:47:15;;;;;;;0.40;0.20;;;20.00;1.00;;;;;;5036300;28;20454;-65
2021/08/23 08:49:41;;;;;;;0.40;0.20;;;20.10;99.90;;;;;;5035859;28;20606;-64
2021/08/23 08:52:08;;;;;;;0.50;0.40;;;20.40;99.90;;;;;;5036052;28;20464;-62
2021/08/23 08:54:34;;;;;;;0.40;0.20;;;20.40;99.90;;;;;;5035732;28;20955;-63
2021/08/23 08:57:01;;;;;;;0.80;0.30;;;20.40;1.00;;;;;;5035617;28;20436;-64
2021/08/23 08:59:27;;;;;;;0.40;0.20;;;20.40;1.00;;;;;;5035442;28;20197;-63
2021/08/23 09:01:53;;;;;;;0.50;0.40;;;20.50;4.20;;;;;;5035669;28;20520;-64
2021/08/23 09:04:27;;;;;;;0.40;0.20;;;20.50;1.00;;;;;;5035960;28;20439;-63
2021/08/23 09:06:54;;;;;;;0.80;0.40;;;20.60;93.70;;;;;;5035645;28;20221;-63
2021/08/23 09:09:22;;;;;;;0.80;0.30;;;20.60;1.00;;;;;;5035781;28;21019;-63
2021/08/23 09:11:58;;;;;;;0.50;0.40;;;20.70;1.00;;;;;;5034822;28;20523;-66
2021/08/23 09:14:23;;;;;;;0.40;0.20;;;20.90;1.00;;;;;;5035683;28;21059;-65
2021/08/23 09:16:49;;;;;;;0.40;0.20;;;20.60;1.00;;;;;;5035520;28;20433;-66
2021/08/23 09:19:25;;;;;;;0.40;0.20;;;20.70;1.00;;;;;;5035746;28;20177;-64
2021/08/23 09:22:02;;;;;;;0.60;0.30;;;20.80;1.00;;;;;;5035519;28;20561;-64
2021/08/23 09:24:32;;;;;;;0.40;0.20;;;20.70;1.00;;;;;;5035442;28;20490;-64
2021/08/23 09:27:12;;;;;;;0.87;0.87;;;20.80;99.90;;;;;;5035101;28;20436;-63
2021/08/23 09:29:56;;;;;;;1.17;0.63;;;20.80;1.00;;;;;;5034256;28;20523;-64
2021/08/23 09:32:23;;;;;;;0.40;0.20;;;20.60;98.00;;;;;;5035415;28;20424;-64
2021/08/23 09:34:49;;;;;;;0.40;0.20;;;20.50;99.90;;;;;;5035115;28;20894;-63
2021/08/23 09:37:21;;;;;;;0.50;0.33;;;20.60;1.00;;;;;;5033825;28;20482;-65
2021/08/23 09:39:46;;;;;;;2.10;0.80;;;20.80;1.00;;;;;;5034941;28;20182;-64
2021/08/23 09:42:17;;;;;;;0.50;0.30;;;20.90;1.00;;;;;;5035165;28;20432;-65
2021/08/23 09:44:43;;;;;;;0.40;0.10;;;21.20;1.00;;;;;;5035184;28;20231;-64
2021/08/23 09:47:10;;;;;;;0.90;0.60;;;21.50;1.00;;;;;;5034711;28;20432;-65
2021/08/23 09:49:38;;;;;;;0.40;0.20;;;21.00;1.00;;;;;;5034210;28;20528;-64
2021/08/23 09:52:05;;;;;;;0.83;0.60;;;20.90;1.00;;;;;;5034857;28;20425;-63
2021/08/23 09:54:32;;;;;;;0.40;0.20;;;21.10;1.00;;;;;;5035005;28;20432;-63
2021/08/23 09:56:57;;;;;;;2.23;0.60;;;21.40;1.00;;;;;;5034915;28;20960;-63
2021/08/23 09:59:25;;;;;;;0.40;0.20;;;21.20;99.90;;;;;;5034859;28;20513;-62
2021/08/23 10:01:54;;;;;;;0.60;0.47;;;21.10;1.00;;;;;;5034696;28;20223;-63
2021/08/23 10:04:20;;;;;;;0.40;0.20;;;21.10;99.90;;;;;;5034639;28;20435;-63
2021/08/23 10:06:48;;;;;;;0.90;0.73;;;21.20;99.90;;;;;;5034287;28;20454;-63
2021/08/23 10:09:18;;;;;;;0.40;0.20;;;20.90;99.90;;;;;;5034394;28;20548;-63
2021/08/23 10:11:45;;;;;;;0.40;0.20;;;20.90;1.00;;;;;;5034557;28;20435;-63
2021/08/23 10:14:10;;;;;;;1.27;0.67;;;21.00;1.00;;;;;;5034643;28;20439;-65
2021/08/23 10:16:36;;;;;;;1.83;1.70;;;21.50;1.00;;;;;;5034009;28;20424;-63
2021/08/23 10:19:03;;;;;;;2.70;0.93;;;21.90;99.90;;;;;;5033507;28;20235;-63
2021/08/23 10:21:29;;;;;;;1.67;1.03;;;21.90;99.90;;;;;;5034007;28;20181;-62
2021/08/23 10:23:56;;;;;;;1.00;1.00;;;21.40;99.90;;;;;;5034267;28;20904;-65
2021/08/23 10:26:22;;;;;;;0.67;0.57;;;21.40;1.00;;;;;;5034242;28;20432;-61
2021/08/23 10:28:48;;;;;;;0.60;0.30;;;21.30;99.90;;;;;;5032933;28;20798;-61
2021/08/23 10:31:15;;;;;;;0.50;0.20;;;21.20;99.90;;;;;;5033878;28;20516;-61
2021/08/23 10:33:42;;;;;;;0.80;0.67;;;21.40;99.90;;;;;;5032902;28;20436;-61
2021/08/23 10:36:12;;;;;;;1.70;1.60;;;21.80;99.90;;;;;;5033902;28;20455;-63
2021/08/23 10:38:39;;;;;;;0.40;0.20;;;22.00;99.90;;;;;;5033734;28;20447;-62
2021/08/23 10:41:24;;;;;;;0.83;0.60;;;22.20;99.90;;;;;;5034050;28;20719;-62
2021/08/23 10:44:00;;;;;;;0.50;0.20;;;22.40;53.10;;;;;;5032383;28;20463;-62
2021/08/23 10:46:29;;;;;;;0.50;0.20;;;22.50;1.00;;;;;;5033619;28;20769;-61
2021/08/23 10:48:57;;;;;;;0.50;0.20;;;22.90;35.50;;;;;;5033669;28;20464;-61
2021/08/23 10:51:42;;;;;;;0.40;0.10;;;23.20;12.20;;;;;;5033927;28;20427;-61
2021/08/23 10:54:23;;;;;;;0.40;0.20;;;23.00;1.00;;;;;;5032491;28;20523;-61
2021/08/23 10:57:14;;;;;;;23.40;4.70;;;22.50;41.70;;;;;;5039093;28;20483;-60
2021/08/23 10:59:53;;;;;;;0.50;0.20;;;22.30;1.00;;;;;;5033506;28;20770;-62
2021/08/23 11:02:31;;;;;;;0.60;0.27;;;22.10;1.00;;;;;;5032704;28;20455;-64
2021/08/23 11:05:12;;;;;;;0.70;0.40;;;22.10;1.00;;;;;;5031879;28;20626;-63
2021/08/23 11:07:40;;;;;;;0.60;0.37;;;22.20;3.80;;;;;;5035669;28;20444;-62
2021/08/23 11:10:22;;;;;;;0.90;0.40;;;22.30;1.00;;;;;;5034958;28;20471;-62
2021/08/23 11:12:50;;;;;;;1.43;0.83;;;22.20;1.00;;;;;;5035107;28;20464;-62
2021/08/23 11:15:19;;;;;;;0.50;0.10;;;21.90;1.00;;;;;;5035642;28;20955;-62
2021/08/23 11:17:48;;;;;;;0.80;0.40;;;22.30;1.00;;;;;;5036050;28;20424;-63
2021/08/23 11:20:24;;;;;;;0.50;0.20;;;21.90;2.90;;;;;;5035589;28;20432;-60
2021/08/23 11:23:12;;;;;;;0.50;0.20;;;22.20;47.70;;;;;;5035492;28;20896;-61
2021/08/23 11:25:47;;;;;;;0.47;0.20;;;22.40;1.00;;;;;;5029833;28;20466;-64
2021/08/23 11:28:16;;;;;;;0.90;0.67;;;22.80;1.00;;;;;;5035097;28;20459;-62
2021/08/23 11:30:43;;;;;;;1.00;0.70;;;23.00;1.00;;;;;;5035432;28;20569;-63
2021/08/23 11:33:10;;;;;;;0.50;0.23;;;22.30;1.00;;;;;;5033229;28;20885;-62
2021/08/23 11:35:37;;;;;;;0.50;0.30;;;22.20;1.00;;;;;;5033313;28;20424;-60
2021/08/23 11:38:05;;;;;;;2.30;1.33;;;21.70;1.00;;;;;;5032725;28;20431;-61
2021/08/23 11:40:33;;;;;;;1.37;0.83;;;21.80;1.00;;;;;;5032803;28;20436;-62
2021/08/23 11:43:00;;;;;;;0.77;0.67;;;22.20;1.00;;;;;;5033191;28;20881;-61
2021/08/23 11:45:29;;;;;;;0.50;0.20;;;22.20;1.00;;;;;;5033379;28;20421;-62
2021/08/23 11:47:55;;;;;;;0.90;0.33;;;22.00;1.00;;;;;;5031649;28;20545;-62
2021/08/23 11:50:21;;;;;;;0.80;0.50;;;22.30;1.00;;;;;;5033189;28;20523;-61
2021/08/23 11:52:48;;;;;;;1.13;0.53;;;22.40;1.00;;;;;;5031850;28;20178;-61
2021/08/23 11:55:30;;;;;;;0.50;0.20;;;22.30;1.00;;;;;;5033035;28;20428;-61
2021/08/23 11:58:04;;;;;;;0.50;0.20;;;22.60;1.00;;;;;;5032899;28;20511;-62
2021/08/23 12:00:30;;;;;;;0.60;0.23;;;22.70;1.00;;;;;;5032856;28;20435;-65
2021/08/23 12:03:11;;;;;;;0.50;0.20;;;22.90;1.00;;;;;;5032110;28;20458;-65
2021/08/23 12:05:42;;;;;;;0.87;0.47;;;22.90;1.00;;;;;;5033325;28;20424;-65
2021/08/23 12:08:09;;;;;;;0.70;0.23;;;23.20;1.00;;;;;;5033319;28;20812;-65
2021/08/23 12:10:37;;;;;;;0.53;0.20;;;23.40;1.00;;;;;;5033445;28;20420;-66
2021/08/23 12:13:07;;;;;;;0.60;0.40;;;23.40;1.00;;;;;;5034914;28;20420;-62
2021/08/23 12:15:35;;;;;;;0.50;0.10;;;22.90;1.00;;;;;;5036323;28;20908;-62
2021/08/23 12:18:11;;;;;;;0.70;0.40;;;22.50;1.00;;;;;;5036259;28;20438;-61
2021/08/23 12:20:37;;;;;;;1.37;0.63;;;22.40;1.00;;;;;;5036691;28;20435;-61
2021/08/23 12:23:03;;;;;;;0.70;0.33;;;21.60;1.00;;;;;;5036630;28;20424;-62
2021/08/23 12:25:29;;;;;;;0.80;0.50;;;21.70;1.00;;;;;;5036392;28;20737;-66
2021/08/23 12:27:54;;;;;;;0.50;0.20;;;21.80;1.00;;;;;;5036116;28;20231;-66
2021/08/23 12:30:33;;;;;;;0.50;0.10;;;22.10;1.00;;;;;;5036229;28;20192;-70
2021/08/23 12:32:59;;;;;;;0.50;0.13;;;22.20;1.00;;;;;;5036310;28;20177;-71
2021/08/23 12:35:31;;;;;;;0.50;0.20;;;22.70;1.00;;;;;;5035335;28;20420;-70
2021/08/23 12:37:57;;;;;;;0.90;0.40;;;22.60;1.00;;;;;;5036353;28;20478;-70
2021/08/23 12:40:23;;;;;;;0.57;0.50;;;22.10;1.00;;;;;;5036122;28;20553;-69
2021/08/23 12:42:56;;;;;;;4.20;1.73;;;21.90;1.00;;;;;;5035402;28;20457;-70
2021/08/23 12:45:22;;;;;;;0.70;0.37;;;21.90;1.00;;;;;;5036004;28;20196;-70
2021/08/23 12:47:48;;;;;;;1.03;0.60;;;21.60;1.00;;;;;;5036206;28;20452;-72
2021/08/23 12:50:13;;;;;;;0.77;0.50;;;21.60;1.00;;;;;;5035408;28;20507;-66
2021/08/23 12:52:39;;;;;;;0.70;0.30;;;21.80;1.00;;;;;;5035906;28;20296;-72